Time;durP1;ratioP1;P1;durP2;ratioP2;P2;SDS_P1;SDS_P2;PMS_P1;PMS_P2;Temp;Humidity;BMP_temperature;BMP_pressure;BME280_temperature;BME280_humidity;BME280_pressure;Samples;Min_cycle;Max_cycle;Signal;HPM_P1;HPM_P2
2023/06/21 00:00:15;;;;;;;10.40;4.35;;;;;;;-142.57;42.24;115900.28;5014175;28;20041;-78
2023/06/21 00:02:45;;;;;;;8.38;3.58;;;;;;;-142.57;42.42;115900.28;5014891;28;20093;-76
2023/06/21 00:05:11;;;;;;;8.23;3.78;;;;;;;-142.57;42.56;115900.28;5014591;28;20565;-78
2023/06/21 00:07:40;;;;;;;6.28;3.75;;;;;;;-142.57;43.01;115900.28;5018054;28;20060;-77
2023/06/21 00:10:08;;;;;;;6.22;3.90;;;;;;;-142.57;43.61;115900.28;5033946;28;20060;-77
2023/06/21 00:12:35;;;;;;;9.57;4.47;;;;;;;-142.57;44.75;115900.28;5028944;28;20048;-77
2023/06/21 00:15:01;;;;;;;12.27;3.75;;;;;;;-142.57;45.03;115900.28;5029055;28;20037;-78
2023/06/21 00:17:26;;;;;;;10.88;3.65;;;;;;;-142.57;44.68;115900.28;5028661;28;20109;-78
2023/06/21 00:19:54;;;;;;;8.85;4.38;;;;;;;-142.57;44.48;115900.28;5031677;28;20052;-77
2023/06/21 00:22:23;;;;;;;8.70;4.20;;;;;;;-142.57;44.39;115900.28;5030527;28;20554;-77
2023/06/21 00:24:49;;;;;;;8.13;3.80;;;;;;;-142.57;44.32;115900.28;5016517;28;20049;-79
2023/06/21 00:27:17;;;;;;;7.20;4.22;;;;;;;-142.57;44.31;115900.28;5016816;28;20042;-79
2023/06/21 00:29:42;;;;;;;13.50;4.30;;;;;;;-142.57;44.31;115900.28;5021213;28;20064;-78
2023/06/21 00:32:08;;;;;;;8.93;3.85;;;;;;;-142.57;43.95;115900.28;5021102;28;20025;-79
2023/06/21 00:34:34;;;;;;;11.88;4.05;;;;;;;-142.57;44.50;115900.28;5025397;28;20103;-79
2023/06/21 00:37:02;;;;;;;13.85;4.30;;;;;;;-142.57;44.64;115900.28;5012397;28;20044;-84
2023/06/21 00:39:28;;;;;;;6.40;3.50;;;;;;;-142.57;44.61;115900.28;5033298;28;20069;-79
2023/06/21 00:41:55;;;;;;;9.05;4.28;;;;;;;-142.57;45.01;115900.28;5030131;28;20046;-79
2023/06/21 00:44:20;;;;;;;7.25;3.88;;;;;;;-142.57;45.41;115900.28;5022049;28;20029;-80
2023/06/21 00:46:46;;;;;;;7.18;3.63;;;;;;;-142.57;45.16;115900.28;5025163;28;20034;-78
2023/06/21 00:49:11;;;;;;;9.65;3.70;;;;;;;-142.57;44.49;115900.28;5021031;28;20060;-84
2023/06/21 00:51:38;;;;;;;7.60;3.83;;;;;;;-142.57;44.63;115900.28;5025432;28;20030;-85
2023/06/21 00:54:05;;;;;;;11.32;3.60;;;;;;;-142.57;44.33;115900.28;5024018;28;20540;-81
2023/06/21 00:56:35;;;;;;;8.45;3.65;;;;;;;-142.57;44.61;115900.28;5005408;28;20045;-78
2023/06/21 00:59:04;;;;;;;21.05;4.60;;;;;;;-142.57;44.46;115900.28;5020997;28;20049;-81
2023/06/21 01:01:34;;;;;;;9.65;4.00;;;;;;;-142.57;44.47;115900.28;5021474;28;20083;-76
2023/06/21 01:04:00;;;;;;;6.32;3.63;;;;;;;-142.57;44.22;115900.28;5022495;28;20029;-78
2023/06/21 01:06:34;;;;;;;10.13;3.75;;;;;;;-142.57;44.50;115900.28;5021337;28;20061;-76
2023/06/21 01:09:37;;;;;;;7.60;3.75;;;;;;;-142.57;45.56;115900.28;5021287;28;20033;-81
2023/06/21 01:12:41;;;;;;;6.20;3.97;;;;;;;-142.57;47.29;115900.28;5003772;28;20470;-82
2023/06/21 01:15:12;;;;;;;6.63;4.15;;;;;;;-142.57;47.87;115900.28;5019877;28;20379;-78
2023/06/21 01:17:40;;;;;;;9.38;4.20;;;;;;;-142.57;47.43;115900.28;5004199;28;20448;-85
2023/06/21 01:20:14;;;;;;;8.15;3.88;;;;;;;-142.57;48.00;115900.28;5021416;28;20029;-80
2023/06/21 01:23:10;;;;;;;11.98;4.50;;;;;;;-142.57;47.75;115900.28;5021434;28;20069;-78
2023/06/21 01:25:54;;;;;;;9.00;3.92;;;;;;;-142.57;47.54;115900.28;5020393;28;20033;-78
2023/06/21 01:28:58;;;;;;;7.30;4.00;;;;;;;-142.57;48.00;115900.28;5021840;28;20071;-80
2023/06/21 01:31:25;;;;;;;7.65;3.50;;;;;;;-142.57;47.72;115900.28;5021943;28;20037;-78
2023/06/21 01:33:51;;;;;;;7.50;4.13;;;;;;;-142.57;48.68;115900.28;5020848;28;20030;-81
2023/06/21 01:36:18;;;;;;;6.50;3.83;;;;;;;-142.57;48.78;115900.28;5012253;28;20049;-79
2023/06/21 01:38:46;;;;;;;6.63;4.45;;;;;;;-142.57;49.21;115900.28;5016066;28;20127;-78
2023/06/21 01:41:15;;;;;;;8.25;3.60;;;;;;;-142.57;48.73;115900.28;5018616;28;20045;-87
2023/06/21 01:43:41;;;;;;;6.90;3.88;;;;;;;-142.57;49.23;115900.28;5033304;28;20040;-88
2023/06/21 01:46:10;;;;;;;11.38;3.55;;;;;;;-142.57;49.31;115900.28;5014109;28;20079;-86
2023/06/21 01:48:37;;;;;;;7.13;3.55;;;;;;;-142.57;49.58;115900.28;5014045;28;20103;-77
2023/06/21 01:51:04;;;;;;;5.57;3.88;;;;;;;-142.57;50.02;115900.28;5014032;28;20538;-82
2023/06/21 01:53:34;;;;;;;6.43;4.30;;;;;;;-142.57;50.72;115900.28;5013985;28;20420;-89
2023/06/21 01:56:01;;;;;;;9.13;3.97;;;;;;;-142.57;51.23;115900.28;5031696;28;20112;-84
2023/06/21 01:58:28;;;;;;;10.82;4.43;;;;;;;-142.57;51.89;115900.28;5013875;28;20104;-82
2023/06/21 02:00:57;;;;;;;9.55;4.05;;;;;;;-142.57;51.53;115900.28;5014107;28;20033;-81
2023/06/21 02:03:25;;;;;;;9.75;4.22;;;;;;;-142.57;51.85;115900.28;5014025;28;20387;-85
2023/06/21 02:05:52;;;;;;;5.47;3.83;;;;;;;-142.57;51.42;115900.28;4997652;28;20025;-79
2023/06/21 02:08:19;;;;;;;11.48;4.53;;;;;;;-142.57;50.53;115900.28;4997387;28;20052;-78
2023/06/21 02:10:46;;;;;;;8.77;4.13;;;;;;;-142.57;50.56;115900.28;5031627;28;20068;-78
2023/06/21 02:13:13;;;;;;;12.40;3.65;;;;;;;-142.57;50.83;115900.28;5031776;28;20094;-86
2023/06/21 02:15:46;;;;;;;;;;;;;;;-142.57;50.72;115900.28;5031999;28;20495;-80
2023/06/21 02:18:12;;;;;;;7.50;3.88;;;;;;;-142.57;50.81;115900.28;5014263;28;19984;-78
2023/06/21 02:20:39;;;;;;;13.80;4.18;;;;;;;-142.57;51.19;115900.28;5031269;28;20032;-83
2023/06/21 02:23:07;;;;;;;8.82;4.45;;;;;;;-142.57;51.74;115900.28;5030916;28;20391;-87
2023/06/21 02:25:35;;;;;;;9.63;4.22;;;;;;;-142.57;52.31;115900.28;5030787;28;20041;-79
2023/06/21 02:28:02;;;;;;;8.43;4.25;;;;;;;-142.57;51.91;115900.28;5030954;28;20368;-79
2023/06/21 02:30:29;;;;;;;10.85;4.47;;;;;;;-142.57;51.40;115900.28;5031349;28;20169;-79
2023/06/21 02:32:55;;;;;;;10.18;4.00;;;;;;;-142.57;51.40;115900.28;5031282;28;20037;-78
2023/06/21 02:35:21;;;;;;;11.73;4.88;;;;;;;-142.57;52.16;115900.28;5013268;28;20453;-78
2023/06/21 02:37:47;;;;;;;9.63;4.10;;;;;;;-142.57;52.27;115900.28;5033472;28;20045;-77
2023/06/21 02:40:13;;;;;;;8.93;4.10;;;;;;;-142.57;52.80;115900.28;5034951;28;20501;-79
2023/06/21 02:42:40;;;;;;;11.40;4.25;;;;;;;-142.57;53.34;115900.28;5016694;28;20399;-78
2023/06/21 02:45:06;;;;;;;10.63;5.25;;;;;;;-142.57;53.44;115900.28;5034625;28;20139;-78
2023/06/21 02:47:32;;;;;;;10.80;4.30;;;;;;;-142.57;53.17;115900.28;5034664;28;20540;-79
2023/06/21 02:49:59;;;;;;;11.82;4.13;;;;;;;-142.57;53.01;115900.28;5016777;28;20100;-78
2023/06/21 02:52:24;;;;;;;10.68;4.47;;;;;;;-142.57;53.34;115900.28;5034514;28;20471;-79
2023/06/21 02:54:52;;;;;;;10.27;4.38;;;;;;;-142.57;54.08;115900.28;5034571;28;20095;-77
2023/06/21 02:57:18;;;;;;;7.53;4.22;;;;;;;-142.57;54.02;115900.28;5034822;28;20038;-77
2023/06/21 02:59:44;;;;;;;8.20;4.50;;;;;;;-142.57;53.63;115900.28;5034990;28;20125;-76
2023/06/21 03:02:09;;;;;;;10.23;5.10;;;;;;;-142.57;53.61;115900.28;5034515;28;20038;-78
2023/06/21 03:04:35;;;;;;;13.07;5.03;;;;;;;-142.57;54.32;115900.28;5034674;28;20026;-77
2023/06/21 03:07:01;;;;;;;10.77;4.95;;;;;;;-142.57;54.60;115900.28;5035183;28;20029;-76
2023/06/21 03:09:27;;;;;;;9.82;5.53;;;;;;;-142.57;54.50;115900.28;5034562;28;20105;-78
2023/06/21 03:11:56;;;;;;;15.20;6.22;;;;;;;-142.57;54.67;115900.28;5034264;28;20048;-79
2023/06/21 03:14:21;;;;;;;16.92;6.90;;;;;;;-142.57;55.95;115900.28;5016252;28;20037;-78
2023/06/21 03:16:47;;;;;;;10.48;6.80;;;;;;;-142.57;56.47;115900.28;5016433;28;20044;-76
2023/06/21 03:19:12;;;;;;;12.50;6.65;;;;;;;-142.57;56.76;115900.28;5016384;28;20032;-78
2023/06/21 03:21:38;;;;;;;13.43;6.63;;;;;;;-142.57;57.27;115900.28;5016232;28;20060;-77
2023/06/21 03:24:04;;;;;;;11.02;6.38;;;;;;;-142.57;57.77;115900.28;5023672;28;20038;-76
2023/06/21 03:26:35;;;;;;;13.15;6.47;;;;;;;-142.57;57.98;115900.28;4983717;28;20034;-78
2023/06/21 03:29:02;;;;;;;19.63;7.28;;;;;;;-142.57;58.17;115900.28;5018181;28;20037;-79
2023/06/21 03:31:28;;;;;;;12.85;6.38;;;;;;;-142.57;57.81;115900.28;4998774;28;20040;-84
2023/06/21 03:33:54;;;;;;;16.13;7.22;;;;;;;-142.57;58.06;115900.28;4996816;28;20050;-86
2023/06/21 03:36:20;;;;;;;11.32;7.07;;;;;;;-142.57;58.97;115900.28;5014265;28;20121;-87
2023/06/21 03:38:47;;;;;;;14.82;7.22;;;;;;;-142.57;59.83;115900.28;4996809;28;20042;-81
2023/06/21 03:41:13;;;;;;;15.95;7.35;;;;;;;-142.57;60.12;115900.28;4997289;28;20034;-75
2023/06/21 03:43:38;;;;;;;11.57;6.10;;;;;;;-142.57;60.22;115900.28;4996762;28;20124;-87
2023/06/21 03:46:07;;;;;;;10.15;6.80;;;;;;;-142.57;60.06;115900.28;4996650;28;20038;-83
2023/06/21 03:48:35;;;;;;;12.40;6.45;;;;;;;-142.57;60.28;115900.28;4995625;28;20410;-82
2023/06/21 03:51:01;;;;;;;10.70;6.10;;;;;;;-142.57;60.06;115900.28;4996711;28;20041;-86
2023/06/21 03:53:27;;;;;;;14.07;6.85;;;;;;;-142.57;59.02;115900.28;4996323;28;20066;-80
2023/06/21 03:55:53;;;;;;;13.52;6.18;;;;;;;-142.57;59.77;115900.28;4996718;28;20049;-83
2023/06/21 03:58:20;;;;;;;9.32;5.88;;;;;;;-142.57;60.25;115900.28;4996293;28;20128;-77
2023/06/21 04:00:45;;;;;;;10.88;5.65;;;;;;;-142.57;59.62;115900.28;4996767;28;20121;-81
2023/06/21 04:03:11;;;;;;;8.90;5.10;;;;;;;-142.57;57.49;115900.28;4996433;28;20041;-86
2023/06/21 04:05:37;;;;;;;9.38;4.60;;;;;;;-142.57;57.19;115900.28;4996778;28;20038;-83
2023/06/21 04:08:07;;;;;;;8.32;4.38;;;;;;;-142.57;56.41;115900.28;4996912;28;20038;-86
2023/06/21 04:10:33;;;;;;;7.57;4.30;;;;;;;-142.57;56.52;115900.28;4996844;28;20041;-84
2023/06/21 04:12:58;;;;;;;9.00;4.18;;;;;;;-142.57;56.33;115900.28;5014035;28;20076;-82
2023/06/21 04:15:29;;;;;;;9.68;4.47;;;;;;;-142.57;55.47;115900.28;4996365;28;20435;-83
2023/06/21 04:17:56;;;;;;;12.65;4.43;;;;;;;-142.57;56.58;115900.28;4996752;28;20054;-82
2023/06/21 04:20:21;;;;;;;8.48;4.25;;;;;;;-142.57;56.88;115900.28;5015263;28;20026;-81
2023/06/21 04:22:47;;;;;;;12.60;4.35;;;;;;;-142.57;57.45;115900.28;5014255;28;20124;-89
2023/06/21 04:25:13;;;;;;;9.32;4.38;;;;;;;-142.57;57.18;115900.28;4980354;28;20042;-89
2023/06/21 04:27:45;;;;;;;8.15;4.70;;;;;;;-142.57;57.55;115900.28;4996481;28;20446;-88
2023/06/21 04:30:14;;;;;;;10.18;4.15;;;;;;;-142.57;57.63;115900.28;5014392;28;20034;-87
2023/06/21 04:32:45;;;;;;;13.77;5.13;;;;;;;-142.57;58.49;115900.28;5014277;28;20487;-87
2023/06/21 04:35:14;;;;;;;9.67;4.67;;;;;;;-142.57;58.60;115900.28;5026181;28;20046;-80
2023/06/21 04:37:44;;;;;;;8.70;4.00;;;;;;;-142.57;58.56;115900.28;5028965;28;20065;-78
2023/06/21 04:40:14;;;;;;;11.85;4.63;;;;;;;-142.57;58.61;115900.28;5028099;28;20030;-79
2023/06/21 04:42:42;;;;;;;15.85;4.68;;;;;;;-142.57;58.01;115900.28;5025627;28;20026;-78
2023/06/21 04:45:13;;;;;;;7.53;4.50;;;;;;;-142.57;57.93;115900.28;5021349;28;20597;-82
2023/06/21 04:47:39;;;;;;;11.70;4.30;;;;;;;-142.57;58.11;115900.28;5013687;28;20068;-79
2023/06/21 04:50:05;;;;;;;8.05;4.35;;;;;;;-142.57;57.79;115900.28;5013902;28;20069;-84
2023/06/21 04:52:31;;;;;;;10.98;4.47;;;;;;;-142.57;57.03;115900.28;5013487;28;20434;-78
2023/06/21 04:54:59;;;;;;;10.23;4.80;;;;;;;-142.57;57.15;115900.28;5013705;28;20049;-82
2023/06/21 04:57:28;;;;;;;12.23;4.47;;;;;;;-142.57;56.36;115900.28;5013950;28;20100;-91
2023/06/21 04:59:54;;;;;;;8.25;4.45;;;;;;;-142.57;55.50;115900.28;5012462;28;20057;-87
2023/06/21 05:02:19;;;;;;;17.42;4.80;;;;;;;-142.57;55.70;115900.28;5015651;28;20450;-81
2023/06/21 05:04:44;;;;;;;18.17;4.90;;;;;;;-142.57;55.79;115900.28;5019719;28;20040;-81
2023/06/21 05:07:13;;;;;;;12.52;4.60;;;;;;;-142.57;55.77;115900.28;5018020;28;20049;-88
2023/06/21 05:09:39;;;;;;;8.98;4.60;;;;;;;-142.57;55.76;115900.28;5015980;28;20034;-86
2023/06/21 05:12:08;;;;;;;7.65;3.85;;;;;;;-142.57;54.92;115900.28;5018572;28;20025;-87
2023/06/21 05:14:36;;;;;;;10.63;4.38;;;;;;;-142.57;55.01;115900.28;5020634;28;20506;-80
2023/06/21 05:17:05;;;;;;;8.15;4.20;;;;;;;-142.57;54.38;115900.28;5035492;28;20082;-78
2023/06/21 05:19:32;;;;;;;14.27;4.60;;;;;;;-142.57;54.30;115900.28;5036084;28;20037;-80
2023/06/21 05:21:58;;;;;;;8.35;4.07;;;;;;;-142.57;53.96;115900.28;5036762;28;20453;-79
2023/06/21 05:24:23;;;;;;;8.57;4.28;;;;;;;-142.57;53.73;115900.28;5037284;28;20025;-82
2023/06/21 05:26:49;;;;;;;16.98;4.07;;;;;;;-142.57;52.77;115900.28;5039945;28;20029;-82
2023/06/21 05:29:14;;;;;;;12.88;4.88;;;;;;;-142.57;53.07;115900.28;5019098;28;20037;-89
2023/06/21 05:31:44;;;;;;;15.30;4.82;;;;;;;-142.57;53.53;115900.28;5036508;28;20128;-80
2023/06/21 05:34:14;;;;;;;11.52;4.45;;;;;;;-142.57;53.89;115900.28;5042787;28;20032;-89
2023/06/21 05:36:39;;;;;;;10.65;4.45;;;;;;;-142.57;53.12;115900.28;5043584;28;20432;-80
2023/06/21 05:39:05;;;;;;;8.95;4.85;;;;;;;-142.57;53.21;115900.28;5037919;28;20025;-80
2023/06/21 05:41:30;;;;;;;8.93;4.45;;;;;;;-142.57;53.30;115900.28;5034699;28;20386;-79
2023/06/21 05:43:57;;;;;;;9.60;5.25;;;;;;;-142.57;53.87;115900.28;5000907;28;20131;-82
2023/06/21 05:46:25;;;;;;;15.20;4.28;;;;;;;-142.57;53.87;115900.28;5016007;28;20113;-80
2023/06/21 05:48:51;;;;;;;9.82;3.60;;;;;;;-142.57;53.74;115900.28;5015808;28;20395;-85
2023/06/21 05:51:16;;;;;;;18.83;4.35;;;;;;;-142.57;53.73;115900.28;4997850;28;20041;-83
2023/06/21 05:53:41;;;;;;;12.05;4.43;;;;;;;-142.57;53.30;115900.28;5015109;28;20314;-80
2023/06/21 05:56:07;;;;;;;8.55;4.10;;;;;;;-142.57;52.82;115900.28;5015906;28;20030;-87
2023/06/21 05:58:35;;;;;;;9.70;3.78;;;;;;;-142.57;52.18;115900.28;5017258;28;20018;-84
2023/06/21 06:01:02;;;;;;;14.20;4.68;;;;;;;-142.57;51.54;115900.28;5015735;28;20108;-82
2023/06/21 06:03:31;;;;;;;5.88;3.72;;;;;;;-142.57;50.68;115900.28;4998419;28;20060;-81
2023/06/21 06:05:56;;;;;;;15.00;4.53;;;;;;;-142.57;50.03;115900.28;5020143;28;20076;-84
2023/06/21 06:08:22;;;;;;;11.27;4.28;;;;;;;-142.57;49.10;115900.28;5012668;28;20030;-83
2023/06/21 06:10:48;;;;;;;11.00;4.20;;;;;;;-142.57;48.84;115900.28;5033248;28;20013;-85
2023/06/21 06:13:13;;;;;;;9.15;4.47;;;;;;;-142.57;48.20;115900.28;5036780;28;20030;-80
2023/06/21 06:15:39;;;;;;;11.40;4.47;;;;;;;-142.57;47.58;115900.28;5037818;28;20036;-81
2023/06/21 06:18:06;;;;;;;10.77;4.47;;;;;;;-142.57;46.73;115900.28;5036233;28;20077;-83
2023/06/21 06:20:32;;;;;;;9.82;4.25;;;;;;;-142.57;45.22;115900.28;5016366;28;20053;-81
2023/06/21 06:23:09;;;;;;;16.30;4.50;;;;;;;-142.57;44.14;115900.28;5020188;28;20046;-82
2023/06/21 06:25:34;;;;;;;11.00;4.25;;;;;;;-142.57;43.88;115900.28;5031737;28;20038;-86
2023/06/21 06:28:03;;;;;;;12.55;4.13;;;;;;;-142.57;42.91;115900.28;5026145;28;20038;-81
2023/06/21 06:30:29;;;;;;;8.50;4.40;;;;;;;-142.57;42.29;115900.28;5022697;28;20487;-84
2023/06/21 06:32:54;;;;;;;13.52;4.15;;;;;;;-142.57;41.07;115900.28;5020419;28;20038;-88
2023/06/21 06:35:20;;;;;;;11.50;3.75;;;;;;;-142.57;38.98;115900.28;5020571;28;20120;-84
2023/06/21 06:37:45;;;;;;;11.25;4.47;;;;;;;-142.57;38.77;115900.28;5020183;28;20034;-88
2023/06/21 06:40:17;;;;;;;11.13;4.15;;;;;;;-142.57;37.84;115900.28;5023476;28;20025;-84
2023/06/21 06:42:43;;;;;;;14.65;4.03;;;;;;;-142.57;37.35;115900.28;5027106;28;20038;-82
2023/06/21 06:45:10;;;;;;;13.60;3.65;;;;;;;-142.57;37.29;115900.28;4999441;28;20029;-85
2023/06/21 06:47:38;;;;;;;11.27;3.70;;;;;;;-142.57;36.57;115900.28;5011713;28;20030;-88
2023/06/21 06:50:04;;;;;;;8.75;3.35;;;;;;;-142.57;35.90;115900.28;5028270;28;20036;-84
2023/06/21 06:52:30;;;;;;;11.80;4.60;;;;;;;-142.57;35.81;115900.28;5026360;28;20044;-82
2023/06/21 06:54:56;;;;;;;9.05;3.80;;;;;;;-142.57;34.70;115900.28;5336303;23;20626;-90
2023/06/21 06:57:24;;;;;;;10.00;3.95;;;;;;;-142.57;34.65;115900.28;5043766;28;20026;-83
2023/06/21 06:59:50;;;;;;;9.90;3.40;;;;;;;-142.57;34.23;115900.28;5031851;28;20073;-85
2023/06/21 07:02:16;;;;;;;7.75;3.95;;;;;;;-142.57;33.81;115900.28;5022934;28;20038;-88
2023/06/21 07:04:42;;;;;;;11.70;3.67;;;;;;;-142.57;34.33;115900.28;5022951;28;20068;-83
2023/06/21 07:07:07;;;;;;;7.07;3.60;;;;;;;-142.57;33.79;115900.28;5023235;28;20034;-88
2023/06/21 07:09:33;;;;;;;14.52;4.00;;;;;;;-142.57;33.63;115900.28;5021096;28;20045;-84
2023/06/21 07:12:01;;;;;;;11.85;4.38;;;;;;;-142.57;33.69;115900.28;5002982;28;20034;-87
2023/06/21 07:14:27;;;;;;;10.80;3.15;;;;;;;-142.57;33.51;115900.28;5018779;28;20061;-88
2023/06/21 07:16:52;;;;;;;7.57;3.72;;;;;;;-142.57;32.96;115900.28;5017823;28;20034;-86
2023/06/21 07:19:18;;;;;;;9.30;3.58;;;;;;;-142.57;32.39;115900.28;5017911;28;20416;-83
2023/06/21 07:22:03;;;;;;;13.40;3.53;;;;;;;-142.57;32.13;115900.28;5018203;28;20036;-83
2023/06/21 07:24:29;;;;;;;14.05;3.95;;;;;;;-142.57;32.35;115900.28;5014948;28;20041;-82
2023/06/21 07:26:54;;;;;;;8.90;3.63;;;;;;;-142.57;32.13;115900.28;5018082;28;20095;-82
2023/06/21 07:29:21;;;;;;;8.20;3.40;;;;;;;-142.57;32.34;115900.28;5017266;28;20080;-83
2023/06/21 07:31:48;;;;;;;8.07;3.67;;;;;;;-142.57;32.26;115900.28;5017269;28;20046;-82
2023/06/21 07:34:13;;;;;;;10.73;3.38;;;;;;;-142.57;31.66;115900.28;5018200;28;20033;-82
2023/06/21 07:36:39;;;;;;;6.90;3.72;;;;;;;-142.57;31.55;115900.28;5019549;28;20034;-83
2023/06/21 07:39:08;;;;;;;11.63;3.72;;;;;;;-142.57;31.54;115900.28;5018251;28;20527;-86
2023/06/21 07:41:33;;;;;;;14.63;4.05;;;;;;;-142.57;30.89;115900.28;5020226;28;20101;-89
2023/06/21 07:44:05;;;;;;;12.35;3.60;;;;;;;-142.57;31.16;115900.28;5021399;28;20064;-86
2023/06/21 07:46:30;;;;;;;12.55;3.50;;;;;;;-142.57;30.56;115900.28;5021768;28;20133;-83
2023/06/21 07:48:56;;;;;;;20.20;4.07;;;;;;;-142.57;31.22;115900.28;5019645;28;20203;-87
2023/06/21 07:51:21;;;;;;;8.90;3.92;;;;;;;-142.57;31.29;115900.28;5020292;28;20034;-85
2023/06/21 07:53:47;;;;;;;7.28;3.60;;;;;;;-142.57;31.31;115900.28;5020099;28;20064;-86
2023/06/21 07:56:14;;;;;;;14.63;4.35;;;;;;;-142.57;31.70;115900.28;5020414;28;20034;-87
2023/06/21 07:58:42;;;;;;;7.68;3.35;;;;;;;-142.57;31.55;115900.28;5023715;28;20052;-83
2023/06/21 08:01:08;;;;;;;10.48;3.90;;;;;;;-142.57;31.53;115900.28;5022281;28;20049;-85
2023/06/21 08:03:33;;;;;;;8.50;3.80;;;;;;;-142.57;30.95;115900.28;5028535;28;20065;-86
2023/06/21 08:06:00;;;;;;;18.02;3.85;;;;;;;-142.57;30.25;115900.28;5024661;28;20136;-84
2023/06/21 08:08:26;;;;;;;9.23;3.85;;;;;;;-142.57;30.17;115900.28;5031604;28;20030;-86
2023/06/21 08:10:53;;;;;;;9.90;3.67;;;;;;;-142.57;30.20;115900.28;5026656;28;20061;-84
2023/06/21 08:13:22;;;;;;;9.52;3.78;;;;;;;-142.57;30.48;115900.28;5033120;28;20022;-83
2023/06/21 08:15:51;;;;;;;10.07;3.85;;;;;;;-142.57;30.17;115900.28;5033052;28;20114;-82
2023/06/21 08:18:17;;;;;;;7.15;3.15;;;;;;;-142.57;30.60;115900.28;5032143;28;20064;-87
2023/06/21 08:20:42;;;;;;;10.55;3.95;;;;;;;-142.57;30.51;115900.28;5032014;28;20034;-84
2023/06/21 08:23:08;;;;;;;6.70;3.90;;;;;;;-142.57;30.51;115900.28;5038419;28;20029;-86
2023/06/21 08:25:35;;;;;;;7.15;4.00;;;;;;;-142.57;30.27;115900.28;5033591;28;20045;-83
2023/06/21 08:28:02;;;;;;;8.80;3.83;;;;;;;-142.57;30.31;115900.28;5029494;28;20042;-83
2023/06/21 08:30:28;;;;;;;9.15;4.03;;;;;;;-142.57;30.83;115900.28;5027622;28;20033;-82
2023/06/21 08:32:53;;;;;;;9.88;3.85;;;;;;;-142.57;31.10;115900.28;5022642;28;20034;-82
2023/06/21 08:35:19;;;;;;;8.98;3.88;;;;;;;-142.57;31.29;115900.28;5015030;28;20030;-82
2023/06/21 08:37:58;;;;;;;11.77;4.18;;;;;;;-142.57;31.04;115900.28;5015812;28;20029;-83
2023/06/21 08:40:26;;;;;;;16.88;4.82;;;;;;;-142.57;31.01;115900.28;5014850;28;20026;-82
2023/06/21 08:42:55;;;;;;;8.55;4.15;;;;;;;-142.57;30.61;115900.28;5016028;28;20040;-82
2023/06/21 08:45:21;;;;;;;8.63;3.42;;;;;;;-142.57;30.22;115900.28;5014321;28;20030;-86
2023/06/21 08:47:47;;;;;;;14.65;4.13;;;;;;;-142.57;29.37;115900.28;5016800;28;20068;-89
2023/06/21 08:50:16;;;;;;;11.88;3.75;;;;;;;-142.57;29.09;115900.28;5022959;28;20025;-85
2023/06/21 08:52:45;;;;;;;11.02;4.03;;;;;;;-142.57;29.28;115900.28;5025497;28;20784;-84
2023/06/21 08:55:13;;;;;;;12.70;4.10;;;;;;;-142.57;29.45;115900.28;5026301;28;20101;-88
2023/06/21 08:57:46;;;;;;;11.63;3.63;;;;;;;-142.57;29.16;115900.28;5029066;28;20148;-85
2023/06/21 09:00:17;;;;;;;8.13;3.70;;;;;;;-142.57;28.81;115900.28;5022290;28;20131;-82
2023/06/21 09:03:14;;;;;;;15.20;4.00;;;;;;;-142.57;28.33;115900.28;5023198;28;20034;-82
2023/06/21 09:06:00;;;;;;;23.05;4.50;;;;;;;-142.57;28.51;115900.28;5020473;28;20073;-81
2023/06/21 09:08:26;;;;;;;17.13;4.32;;;;;;;-142.57;28.93;115900.28;5021437;28;20046;-79
2023/06/21 09:10:52;;;;;;;15.98;4.07;;;;;;;-142.57;28.90;115900.28;5022024;28;20494;-85
2023/06/21 09:13:22;;;;;;;12.77;3.83;;;;;;;-142.57;28.46;115900.28;5020078;28;20025;-80
2023/06/21 09:15:50;;;;;;;7.93;3.67;;;;;;;-142.57;28.57;115900.28;5028263;28;20045;-85
2023/06/21 09:18:16;;;;;;;12.85;3.47;;;;;;;-142.57;28.61;115900.28;5027376;28;20112;-85
2023/06/21 09:20:46;;;;;;;12.18;3.63;;;;;;;-142.57;28.96;115900.28;5032174;28;20064;-83
2023/06/21 09:23:12;;;;;;;8.15;3.80;;;;;;;-142.57;28.44;115900.28;5021064;28;20034;-82
2023/06/21 09:25:37;;;;;;;9.25;3.28;;;;;;;-142.57;28.16;115900.28;5018205;28;20044;-84
2023/06/21 09:28:03;;;;;;;14.02;4.03;;;;;;;-142.57;28.54;115900.28;5021284;28;20050;-83
2023/06/21 09:30:29;;;;;;;9.95;3.42;;;;;;;-142.57;28.69;115900.28;5015045;28;20026;-83
2023/06/21 09:32:56;;;;;;;7.60;3.40;;;;;;;-142.57;28.18;115900.28;5027403;28;20510;-82
2023/06/21 09:35:22;;;;;;;9.75;4.03;;;;;;;-142.57;28.86;115900.28;5035037;28;20454;-84
2023/06/21 09:37:47;;;;;;;13.73;3.92;;;;;;;-142.57;28.61;115900.28;5034136;28;20037;-79
2023/06/21 09:40:16;;;;;;;6.75;3.75;;;;;;;-142.57;28.59;115900.28;5032067;28;20087;-88
2023/06/21 09:42:44;;;;;;;9.75;3.70;;;;;;;-142.57;28.32;115900.28;5033146;28;20459;-82
2023/06/21 09:45:18;;;;;;;11.10;3.80;;;;;;;-142.57;28.50;115900.28;5031238;28;20033;-83
2023/06/21 09:47:44;;;;;;;16.95;3.53;;;;;;;-142.57;28.34;115900.28;5033311;28;20108;-82
2023/06/21 09:50:10;;;;;;;11.68;3.85;;;;;;;-142.57;28.43;115900.28;5035261;28;20055;-79
2023/06/21 09:52:36;;;;;;;12.00;3.40;;;;;;;-142.57;28.30;115900.28;5025662;28;20037;-83
2023/06/21 09:55:02;;;;;;;9.73;3.65;;;;;;;-142.57;28.25;115900.28;5029141;28;20040;-80
2023/06/21 09:57:32;;;;;;;10.65;3.78;;;;;;;-142.57;28.36;115900.28;5035978;28;20052;-80
2023/06/21 09:59:59;;;;;;;13.80;4.15;;;;;;;-142.57;29.21;115900.28;5035462;28;20113;-85
2023/06/21 10:02:26;;;;;;;6.80;3.35;;;;;;;-142.57;29.20;115900.28;5034525;28;20049;-82
2023/06/21 10:04:54;;;;;;;8.07;3.72;;;;;;;-142.57;29.00;115900.28;5036340;28;20530;-77
2023/06/21 10:07:25;;;;;;;11.10;3.72;;;;;;;-142.57;28.94;115900.28;5039474;28;20044;-79
2023/06/21 10:09:50;;;;;;;8.75;3.60;;;;;;;-142.57;29.16;115900.28;5038566;28;20034;-78
2023/06/21 10:12:16;;;;;;;14.65;3.55;;;;;;;-142.57;28.56;115900.28;5040823;28;20044;-79
2023/06/21 10:14:45;;;;;;;8.90;3.65;;;;;;;-142.57;28.69;115900.28;5043208;28;20128;-80
2023/06/21 10:17:12;;;;;;;9.45;4.10;;;;;;;-142.57;28.71;115900.28;5036856;28;20502;-78
2023/06/21 10:19:40;;;;;;;20.30;3.92;;;;;;;-142.57;29.09;115900.28;5039411;28;20166;-79
2023/06/21 10:22:11;;;;;;;7.90;3.85;;;;;;;-142.57;29.14;115900.28;5037616;28;20037;-81
2023/06/21 10:24:42;;;;;;;6.07;3.88;;;;;;;-142.57;29.16;115900.28;5038765;28;20430;-78
2023/06/21 10:27:10;;;;;;;12.35;4.20;;;;;;;-142.57;29.05;115900.28;5019989;28;20502;-79
2023/06/21 10:29:38;;;;;;;10.23;3.67;;;;;;;-142.57;29.07;115900.28;5036859;28;20068;-80
2023/06/21 10:32:08;;;;;;;19.08;4.00;;;;;;;-142.57;28.89;115900.28;5037252;28;20029;-78
2023/06/21 10:35:00;;;;;;;11.20;3.80;;;;;;;-142.57;28.69;115900.28;5037506;28;20066;-85
2023/06/21 10:37:50;;;;;;;15.45;3.83;;;;;;;-142.57;28.58;115900.28;5031517;28;20494;-83
2023/06/21 10:40:17;;;;;;;9.70;3.45;;;;;;;-142.57;28.59;115900.28;5039923;28;20164;-81
2023/06/21 10:42:45;;;;;;;5.75;3.65;;;;;;;-142.57;28.70;115900.28;5042557;28;20037;-85
2023/06/21 10:45:14;;;;;;;7.93;3.85;;;;;;;-142.57;28.64;115900.28;5044697;28;20044;-83
2023/06/21 10:47:40;;;;;;;19.58;4.00;;;;;;;-142.57;28.69;115900.28;5041723;28;20049;-80
2023/06/21 10:50:08;;;;;;;8.07;3.83;;;;;;;-142.57;28.87;115900.28;5040564;28;20047;-84
2023/06/21 10:52:34;;;;;;;10.00;4.07;;;;;;;-142.57;29.38;115900.28;5036753;28;20029;-79
2023/06/21 10:55:02;;;;;;;11.77;4.03;;;;;;;-142.57;29.07;115900.28;5036789;28;20578;-85
2023/06/21 10:57:29;;;;;;;11.48;4.00;;;;;;;-142.57;28.94;115900.28;5037481;28;20033;-80
2023/06/21 11:00:02;;;;;;;16.13;3.83;;;;;;;-142.57;29.07;115900.28;5035342;28;20018;-78
2023/06/21 11:02:28;;;;;;;11.13;3.40;;;;;;;-142.57;29.33;115900.28;5035052;28;20099;-80
2023/06/21 11:05:14;;;;;;;10.05;3.63;;;;;;;-142.57;29.11;115900.28;5033730;28;20124;-81
2023/06/21 11:07:50;;;;;;;6.25;3.70;;;;;;;-142.57;28.94;115900.28;5036211;28;20538;-83